Airport Name : Launceston

Other Name : Launceston

ICAO : YMLT

IATA : LST

FAA :

Latitude : -41.545278

Longitude : 147.214167

Country : Australia

Local Date and Time : 17 Jun 2024 11:59

 

TAF (Terminal Aerodrome Forecast)

TAF AMD YMLT 162330Z 1623/1800 16012KT 9999 SCT035 FM171200 16005KT 9999 SCT025

 

METAR (METeorological Aerodrome Report)

YMLT 170130Z AUTO 17012KT 9999 // SCT022 BKN027 BKN032 10/05 Q1022

YMLT 170100Z AUTO 15014KT 9999 // SCT020 09/05 Q1022 RF00.0/000.0

YMLT 170030Z AUTO 16014KT 9999 // SCT020 BKN034 09/04 Q1022

YMLT 170000Z AUTO 16015KT 9999 // OVC036 09/04 Q1022 RF00.0/000.0

YMLT 162330Z AUTO 15011KT 9999 // OVC038 08/04 Q1022 RF00.0/000.0

YMLT 162300Z AUTO 16010KT 9999 // BKN036 07/04 Q1022 RF00.0/000.0

YMLT 162230Z AUTO 16009KT 9999 // BKN036 07/04 Q1022 RF00.0/000.0

YMLT 162200Z AUTO 16010KT 9999 // OVC036 07/04 Q1022 RF00.0/000.0